createdAt,value
2023-03-22T00:04:51.255Z,2.67
2023-03-22T00:09:54.823Z,2.67
2023-03-22T00:21:48.666Z,2.72
2023-03-22T00:26:52.141Z,3.58
2023-03-22T00:31:56.137Z,2.35
2023-03-22T00:37:01.401Z,3.03
2023-03-22T00:42:05.759Z,2.95
2023-03-22T00:47:09.340Z,2.88
2023-03-22T00:52:14.416Z,2.97
2023-03-22T00:57:18.225Z,3.20
2023-03-22T01:02:29.901Z,2.50
2023-03-22T01:07:41.617Z,2.50
2023-03-22T01:12:46.422Z,2.55
2023-03-22T01:17:50.153Z,2.30
2023-03-22T01:22:55.538Z,2.13
2023-03-22T01:27:59.613Z,2.15
2023-03-22T01:33:03.442Z,1.83
2023-03-22T01:38:09.451Z,2.10
2023-03-22T01:43:19.110Z,2.22
2023-03-22T01:48:27.488Z,2.25
2023-03-22T01:53:36.643Z,2.08
2023-03-22T01:58:43.397Z,1.80
2023-03-22T02:03:54.111Z,2.30
2023-03-22T02:08:59.997Z,2.70
2023-03-22T02:14:27.217Z,2.45
2023-03-22T02:20:47.678Z,2.87
2023-03-22T02:26:24.798Z,2.45
2023-03-22T02:31:51.348Z,2.25
2023-03-22T02:37:36.953Z,2.28
2023-03-22T02:42:51.090Z,2.50
2023-03-22T02:47:59.590Z,2.60
2023-03-22T02:53:08.424Z,2.13
2023-03-22T02:58:18.573Z,1.90
2023-03-22T03:03:25.524Z,2.50
2023-03-22T03:08:29.974Z,2.45
2023-03-22T03:13:36.016Z,2.88
2023-03-22T03:18:51.897Z,2.20
2023-03-22T03:24:04.158Z,2.08
2023-03-22T03:29:16.697Z,2.42
2023-03-22T03:34:27.437Z,2.50
2023-03-22T03:39:36.228Z,1.92
2023-03-22T03:44:41.638Z,2.13
2023-03-22T03:49:46.091Z,2.28
2023-03-22T03:54:49.846Z,2.47
2023-03-22T03:59:58.898Z,2.60
2023-03-22T04:05:17.658Z,2.10
2023-03-22T04:10:21.527Z,2.22
2023-03-22T04:15:26.856Z,2.20
2023-03-22T04:20:34.246Z,2.28
2023-03-22T04:25:38.442Z,2.10
2023-03-22T04:30:52.407Z,2.25
2023-03-22T04:36:17.573Z,2.25
2023-03-22T04:41:43.862Z,2.50
2023-03-22T04:46:49.041Z,2.13
2023-03-22T04:51:53.325Z,2.33
2023-03-22T04:57:07.391Z,2.15
2023-03-22T05:02:18.151Z,2.15
2023-03-22T05:07:24.340Z,1.98
2023-03-22T05:12:32.826Z,2.15
2023-03-22T05:17:58.076Z,2.55
2023-03-22T05:23:02.781Z,2.78
2023-03-22T05:28:08.883Z,2.33
2023-03-22T05:33:24.182Z,2.15
2023-03-22T05:38:31.752Z,2.35
2023-03-22T05:43:38.181Z,2.25
2023-03-22T05:48:44.025Z,2.30
2023-03-22T05:53:50.174Z,2.75
2023-03-22T05:58:59.301Z,2.38
2023-03-22T06:04:04.717Z,2.08
2023-03-22T06:09:17.986Z,3.05
2023-03-22T06:14:26.544Z,2.53
2023-03-22T06:19:54.939Z,2.58
2023-03-22T06:24:58.985Z,2.30
2023-03-22T06:30:12.389Z,2.72
2023-03-22T06:35:43.694Z,2.43
2023-03-22T06:40:51.813Z,2.40
2023-03-22T06:45:57.320Z,2.47
2023-03-22T06:51:09.484Z,2.40
2023-03-22T06:56:14.662Z,2.72
2023-03-22T07:01:26.733Z,2.60
2023-03-22T07:06:33.009Z,2.10
2023-03-22T07:11:38.487Z,2.30
2023-03-22T07:16:42.201Z,2.17
2023-03-22T07:21:47.326Z,2.38
2023-03-22T07:26:51.436Z,2.50
2023-03-22T07:31:59.930Z,2.67
2023-03-22T07:37:13.106Z,2.28
2023-03-22T07:42:18.248Z,2.13
2023-03-22T07:47:52.450Z,2.22
2023-03-22T07:53:21.719Z,2.28
2023-03-22T07:58:26.649Z,2.22
2023-03-22T08:03:30.527Z,2.00
2023-03-22T08:08:46.998Z,1.63
2023-03-22T08:13:51.564Z,2.40
2023-03-22T08:18:55.320Z,2.15
2023-03-22T08:24:02.667Z,1.50
2023-03-22T08:29:28.853Z,1.58
2023-03-22T08:34:33.300Z,1.25
2023-03-22T08:39:38.622Z,1.10
2023-03-22T08:45:06.027Z,1.40
2023-03-22T08:50:13.523Z,1.17
2023-03-22T08:55:40.048Z,1.13
2023-03-22T09:00:50.029Z,1.17
2023-03-22T09:06:06.925Z,1.10
2023-03-22T09:11:17.879Z,1.20
2023-03-22T09:16:23.814Z,1.17
2023-03-22T09:21:29.794Z,1.10
2023-03-22T09:26:45.524Z,1.05
2023-03-22T09:31:51.732Z,0.88
2023-03-22T09:37:02.414Z,0.80
2023-03-22T09:42:27.430Z,0.90
2023-03-22T09:47:44.229Z,0.60
2023-03-22T09:52:48.955Z,0.70
2023-03-22T09:58:04.101Z,0.70
2023-03-22T10:03:20.982Z,0.73
2023-03-22T10:08:34.423Z,0.70
2023-03-22T10:13:49.851Z,0.60
2023-03-22T10:18:58.699Z,0.70
2023-03-22T10:24:08.789Z,0.90
2023-03-22T10:29:23.216Z,0.60
2023-03-22T10:34:31.217Z,1.10
2023-03-22T10:39:39.382Z,0.60
2023-03-22T10:44:49.707Z,0.50
2023-03-22T10:49:56.731Z,0.95
2023-03-22T10:55:04.226Z,0.70
2023-03-22T11:00:17.628Z,0.70
2023-03-22T11:05:24.444Z,0.60
2023-03-22T11:10:32.662Z,0.65
2023-03-22T11:15:40.626Z,0.60
2023-03-22T11:20:55.375Z,0.90
2023-03-22T11:26:11.282Z,0.75
2023-03-22T11:31:18.189Z,0.52
2023-03-22T11:36:23.272Z,0.90
2023-03-22T11:41:29.200Z,0.68
2023-03-22T11:46:36.270Z,0.80
2023-03-22T11:51:40.969Z,0.73
2023-03-22T11:56:48.222Z,0.70
2023-03-22T12:02:04.731Z,0.88
2023-03-22T12:07:16.251Z,0.47
2023-03-22T12:12:23.440Z,0.40
2023-03-22T12:17:35.526Z,0.40
2023-03-22T12:22:45.840Z,0.60
2023-03-22T12:33:03.864Z,0.65
2023-03-22T12:38:24.927Z,0.52
2023-03-22T12:43:48.088Z,0.30
2023-03-22T12:48:56.987Z,0.40
2023-03-22T12:54:02.932Z,0.40
2023-03-22T12:59:14.104Z,0.40
2023-03-22T13:04:46.861Z,0.50
2023-03-22T13:09:51.929Z,0.50
2023-03-22T13:15:00.391Z,0.65
2023-03-22T13:20:35.064Z,0.30
2023-03-22T13:25:40.840Z,0.40
2023-03-22T13:30:50.928Z,0.40
2023-03-22T13:35:59.206Z,0.50
2023-03-22T13:41:05.879Z,0.40
2023-03-22T13:46:28.422Z,0.40
2023-03-22T13:51:34.550Z,0.30
2023-03-22T13:56:57.116Z,0.40
2023-03-22T14:02:05.686Z,0.45
2023-03-22T14:07:24.093Z,0.60
2023-03-22T14:12:33.161Z,0.55
2023-03-22T14:17:43.475Z,0.60
